createdAt,value
2017-03-15T00:00:08.402Z,932
2017-03-15T00:00:36.580Z,931.99
2017-03-15T00:01:04.820Z,932
2017-03-15T00:01:33.155Z,932.06
2017-03-15T00:02:01.485Z,932.04
2017-03-15T00:02:29.945Z,932.09
2017-03-15T00:02:58.228Z,932.05
2017-03-15T00:03:26.247Z,932.03
2017-03-15T00:03:54.573Z,932.09
2017-03-15T00:04:22.997Z,932.05
2017-03-15T00:04:51.083Z,932.06
2017-03-15T00:05:19.340Z,932.05
2017-03-15T00:05:47.635Z,932.06
2017-03-15T00:06:15.733Z,932.03
2017-03-15T00:06:43.938Z,932.03
2017-03-15T00:07:12.138Z,932.03
2017-03-15T00:07:40.415Z,932.03
2017-03-15T00:08:08.786Z,932.02
2017-03-15T00:08:36.992Z,932.03
2017-03-15T00:09:05.273Z,932.03
2017-03-15T00:09:33.493Z,932.01
2017-03-15T00:10:01.545Z,931.99
2017-03-15T00:10:29.810Z,932.05
2017-03-15T00:10:57.883Z,932.07
2017-03-15T00:11:26.142Z,932.04
2017-03-15T00:11:54.297Z,932.09
2017-03-15T00:12:22.564Z,932.03
2017-03-15T00:12:50.674Z,932.08
2017-03-15T00:13:18.764Z,932.07
2017-03-15T00:13:46.990Z,932.06
2017-03-15T00:14:15.145Z,932.06
2017-03-15T00:14:43.205Z,932.06
2017-03-15T00:15:11.452Z,932.08
2017-03-15T00:15:39.663Z,932.06
2017-03-15T00:16:07.735Z,932.05
2017-03-15T00:16:35.871Z,932.09
2017-03-15T00:17:04.117Z,932.07
2017-03-15T00:17:32.446Z,932.06
2017-03-15T00:18:00.620Z,932.09
2017-03-15T00:18:28.880Z,932.06
2017-03-15T00:18:57.147Z,932.03
2017-03-15T00:19:25.378Z,932.04
2017-03-15T00:19:53.641Z,932.08
2017-03-15T00:20:21.724Z,932.07
2017-03-15T00:20:49.805Z,932.08
2017-03-15T00:21:17.971Z,932.1
2017-03-15T00:21:46.180Z,932.1
2017-03-15T00:22:14.401Z,932.13
2017-03-15T00:22:42.408Z,932.11
2017-03-15T00:23:10.716Z,932.14
2017-03-15T00:23:38.981Z,932.14
2017-03-15T00:24:07.194Z,932.13
2017-03-15T00:24:35.575Z,932.11
2017-03-15T00:25:03.980Z,932.14
2017-03-15T00:25:32.159Z,932.15
2017-03-15T00:26:00.398Z,932.13
2017-03-15T00:26:28.655Z,932.13
2017-03-15T00:26:57.078Z,932.15
2017-03-15T00:27:25.377Z,932.16
2017-03-15T00:27:53.761Z,932.14
2017-03-15T00:28:21.906Z,932.18
2017-03-15T00:28:50.292Z,932.21
2017-03-15T00:29:18.488Z,932.17
2017-03-15T00:29:46.690Z,932.18
2017-03-15T00:30:14.976Z,932.23
2017-03-15T00:30:44.014Z,932.2
2017-03-15T00:31:12.200Z,932.23
2017-03-15T00:31:40.443Z,932.26
2017-03-15T00:32:08.649Z,932.22
2017-03-15T00:32:36.896Z,932.23
2017-03-15T00:33:05.212Z,932.22
2017-03-15T00:33:33.439Z,932.25
2017-03-15T00:34:01.605Z,932.25
2017-03-15T00:34:29.838Z,932.22
2017-03-15T00:34:58.145Z,932.23
2017-03-15T00:35:26.388Z,932.22
2017-03-15T00:35:54.651Z,932.23
2017-03-15T00:36:22.876Z,932.23
2017-03-15T00:36:51.020Z,932.26
2017-03-15T00:37:19.226Z,932.24
2017-03-15T00:37:47.441Z,932.24
2017-03-15T00:38:15.592Z,932.29
2017-03-15T00:38:43.718Z,932.28
2017-03-15T00:39:11.809Z,932.29
2017-03-15T00:39:39.936Z,932.29
2017-03-15T00:40:08.486Z,932.31
2017-03-15T00:40:36.699Z,932.32
2017-03-15T00:41:04.844Z,932.32
2017-03-15T00:41:33.098Z,932.35
2017-03-15T00:42:01.311Z,932.37
2017-03-15T00:42:29.468Z,932.33
2017-03-15T00:42:57.691Z,932.39
2017-03-15T00:43:25.857Z,932.4
2017-03-15T00:43:54.102Z,932.41
2017-03-15T00:44:22.278Z,932.37
2017-03-15T00:44:50.444Z,932.44
2017-03-15T00:45:18.715Z,932.42
2017-03-15T00:45:46.936Z,932.38
2017-03-15T00:46:15.042Z,932.4
2017-03-15T00:46:43.250Z,932.4
2017-03-15T00:47:11.404Z,932.42
2017-03-15T00:47:39.731Z,932.38
2017-03-15T00:48:08.035Z,932.44
2017-03-15T00:48:36.238Z,932.44
2017-03-15T00:49:04.255Z,932.45
2017-03-15T00:49:32.491Z,932.46
2017-03-15T00:50:00.675Z,932.45
2017-03-15T00:50:28.748Z,932.46
2017-03-15T00:50:56.943Z,932.46
2017-03-15T00:51:25.227Z,932.48
2017-03-15T00:51:53.539Z,932.46
2017-03-15T00:52:21.693Z,932.47
2017-03-15T00:52:49.884Z,932.47
2017-03-15T00:53:18.059Z,932.48
2017-03-15T00:53:46.224Z,932.48
2017-03-15T00:54:14.348Z,932.46
2017-03-15T00:54:42.625Z,932.44
2017-03-15T00:55:10.681Z,932.48
2017-03-15T00:55:38.835Z,932.47
2017-03-15T00:56:07.079Z,932.49
2017-03-15T00:56:35.325Z,932.46
2017-03-15T00:57:03.554Z,932.51
2017-03-15T00:57:31.677Z,932.48
2017-03-15T00:58:00.082Z,932.51
2017-03-15T00:58:28.257Z,932.46
2017-03-15T00:58:56.509Z,932.47
2017-03-15T00:59:24.808Z,932.51
2017-03-15T00:59:52.855Z,932.46
2017-03-15T01:00:21.132Z,932.45
2017-03-15T01:00:49.264Z,932.5
2017-03-15T01:01:17.493Z,932.5
2017-03-15T01:01:45.707Z,932.5
2017-03-15T01:02:13.946Z,932.5
2017-03-15T01:02:41.987Z,932.51
2017-03-15T01:03:10.371Z,932.52
2017-03-15T01:03:38.417Z,932.49
2017-03-15T01:04:06.664Z,932.48
2017-03-15T01:04:34.705Z,932.5
2017-03-15T01:05:02.839Z,932.51
2017-03-15T01:05:30.985Z,932.5
2017-03-15T01:05:59.038Z,932.48
2017-03-15T01:06:27.247Z,932.45
2017-03-15T01:06:55.299Z,932.45
2017-03-15T01:07:23.582Z,932.42
2017-03-15T01:07:51.993Z,932.41
2017-03-15T01:08:20.199Z,932.41
2017-03-15T01:08:48.156Z,932.4
2017-03-15T01:09:16.414Z,932.36
2017-03-15T01:09:44.556Z,932.39
2017-03-15T01:10:12.844Z,932.37
2017-03-15T01:10:41.090Z,932.4
2017-03-15T01:11:09.242Z,932.39
2017-03-15T01:11:37.422Z,932.35
2017-03-15T01:12:05.481Z,932.33
2017-03-15T01:12:33.512Z,932.26
2017-03-15T01:13:01.863Z,932.26
2017-03-15T01:13:30.025Z,932.26
2017-03-15T01:13:58.190Z,932.22
2017-03-15T01:14:26.657Z,932.21
2017-03-15T01:14:54.892Z,932.21
2017-03-15T01:15:23.050Z,932.14
2017-03-15T01:15:51.216Z,932.21
2017-03-15T01:16:19.412Z,932.19
2017-03-15T01:16:47.579Z,932.21
2017-03-15T01:17:15.853Z,932.21
2017-03-15T01:17:44.131Z,932.17
2017-03-15T01:18:12.267Z,932.18
2017-03-15T01:18:40.538Z,932.19
2017-03-15T01:19:08.683Z,932.18
2017-03-15T01:19:36.809Z,932.19
2017-03-15T01:20:04.960Z,932.19
2017-03-15T01:20:33.146Z,932.22
2017-03-15T01:21:01.173Z,932.22
2017-03-15T01:21:29.547Z,932.26
2017-03-15T01:21:57.655Z,932.26
2017-03-15T01:22:25.985Z,932.28
2017-03-15T01:22:54.286Z,932.27
2017-03-15T01:23:22.645Z,932.27
2017-03-15T01:23:51.225Z,932.29
2017-03-15T01:24:19.666Z,932.33
2017-03-15T01:24:47.940Z,932.27
2017-03-15T01:25:16.383Z,932.3
2017-03-15T01:25:44.673Z,932.3
2017-03-15T01:26:12.922Z,932.31
2017-03-15T01:26:41.171Z,932.33
2017-03-15T01:27:10.136Z,932.31
2017-03-15T01:27:38.409Z,932.31
2017-03-15T01:28:06.838Z,932.3
2017-03-15T01:28:35.371Z,932.27
2017-03-15T01:29:03.877Z,932.29
2017-03-15T01:29:32.361Z,932.25
2017-03-15T01:30:00.744Z,932.26
2017-03-15T01:30:29.129Z,932.25
2017-03-15T01:30:57.737Z,932.23
2017-03-15T01:31:25.943Z,932.24
2017-03-15T01:31:54.393Z,932.25
2017-03-15T01:32:22.793Z,932.25
2017-03-15T01:32:51.167Z,932.25
2017-03-15T01:33:19.799Z,932.25
2017-03-15T01:33:48.038Z,932.24
2017-03-15T01:34:16.286Z,932.22
2017-03-15T01:34:44.535Z,932.22
2017-03-15T01:35:12.715Z,932.24
2017-03-15T01:35:41.129Z,932.2
2017-03-15T01:36:09.736Z,932.21
2017-03-15T01:36:37.960Z,932.2
2017-03-15T01:37:06.088Z,932.22
2017-03-15T01:37:34.162Z,932.18
2017-03-15T01:38:02.329Z,932.2
2017-03-15T01:38:30.776Z,932.2
2017-03-15T01:38:59.066Z,932.19
2017-03-15T01:39:27.308Z,932.17
2017-03-15T01:39:55.515Z,932.18
2017-03-15T01:40:23.738Z,932.13
2017-03-15T01:40:51.865Z,932.15
2017-03-15T01:41:20.128Z,932.12
2017-03-15T01:41:48.395Z,932.13
2017-03-15T01:42:16.635Z,932.1
2017-03-15T01:42:44.723Z,932.11
2017-03-15T01:43:13.192Z,932.11
2017-03-15T01:43:41.416Z,932.1
2017-03-15T01:44:09.573Z,932.18
2017-03-15T01:44:37.634Z,932.14
2017-03-15T01:45:05.728Z,932.16
2017-03-15T01:45:33.980Z,932.19
2017-03-15T01:46:02.194Z,932.14
2017-03-15T01:46:30.445Z,932.18
2017-03-15T01:46:58.708Z,932.14
2017-03-15T01:47:26.952Z,932.18
2017-03-15T01:47:55.165Z,932.19
2017-03-15T01:48:23.388Z,932.15
2017-03-15T01:48:51.642Z,932.18
2017-03-15T01:49:19.711Z,932.19
2017-03-15T01:49:47.973Z,932.24
2017-03-15T01:50:16.210Z,932.21
2017-03-15T01:50:45.295Z,932.23
2017-03-15T01:51:13.596Z,932.26
2017-03-15T01:51:41.823Z,932.29
2017-03-15T01:52:10.188Z,932.28
2017-03-15T01:52:38.383Z,932.28
2017-03-15T01:53:06.641Z,932.27
2017-03-15T01:53:34.891Z,932.31
2017-03-15T01:54:03.105Z,932.34
2017-03-15T01:54:31.249Z,932.31
2017-03-15T01:54:59.408Z,932.32
2017-03-15T01:55:27.547Z,932.32
2017-03-15T01:55:55.784Z,932.32
2017-03-15T01:56:24.060Z,932.34
2017-03-15T01:56:52.297Z,932.35
2017-03-15T01:57:20.397Z,932.35
2017-03-15T01:57:48.554Z,932.35
2017-03-15T01:58:16.689Z,932.35
2017-03-15T01:58:45.224Z,932.35
2017-03-15T01:59:13.427Z,932.34
2017-03-15T01:59:41.729Z,932.34
2017-03-15T02:00:09.903Z,932.36
2017-03-15T02:00:38.159Z,932.34
2017-03-15T02:01:06.432Z,932.38
2017-03-15T02:01:34.713Z,932.37
2017-03-15T02:02:02.700Z,932.4
2017-03-15T02:02:30.861Z,932.36
2017-03-15T02:02:59.071Z,932.35
2017-03-15T02:03:27.330Z,932.35
2017-03-15T02:03:55.616Z,932.34
2017-03-15T02:04:23.863Z,932.38
2017-03-15T02:04:51.988Z,932.36
2017-03-15T02:05:20.158Z,932.33
2017-03-15T02:05:48.267Z,932.33
2017-03-15T02:06:16.434Z,932.31
2017-03-15T02:06:44.474Z,932.32
2017-03-15T02:07:12.740Z,932.32
2017-03-15T02:07:40.904Z,932.35
2017-03-15T02:08:09.141Z,932.34
2017-03-15T02:08:37.375Z,932.31
2017-03-15T02:09:05.742Z,932.33
2017-03-15T02:09:33.897Z,932.35
2017-03-15T02:10:02.141Z,932.34
2017-03-15T02:10:30.297Z,932.31
2017-03-15T02:10:58.465Z,932.35
2017-03-15T02:11:26.713Z,932.36
2017-03-15T02:11:54.881Z,932.35
2017-03-15T02:12:23.220Z,932.38
2017-03-15T02:12:51.363Z,932.33
2017-03-15T02:13:19.660Z,932.33
2017-03-15T02:13:47.827Z,932.32
2017-03-15T02:14:15.785Z,932.31
2017-03-15T02:14:43.944Z,932.31
2017-03-15T02:15:12.125Z,932.34
2017-03-15T02:15:40.290Z,932.31
2017-03-15T02:16:08.562Z,932.29
2017-03-15T02:16:36.615Z,932.31
2017-03-15T02:17:04.769Z,932.31
2017-03-15T02:17:32.898Z,932.28
2017-03-15T02:18:00.952Z,932.29
2017-03-15T02:18:29.001Z,932.27
2017-03-15T02:18:57.319Z,932.29
2017-03-15T02:19:25.346Z,932.29
2017-03-15T02:19:53.554Z,932.25
2017-03-15T02:20:21.787Z,932.24
2017-03-15T02:20:49.995Z,932.23
2017-03-15T02:21:18.159Z,932.27
2017-03-15T02:21:46.304Z,932.22
2017-03-15T02:22:14.444Z,932.24
2017-03-15T02:22:42.591Z,932.24
2017-03-15T02:23:10.759Z,932.25
2017-03-15T02:23:39.026Z,932.26
2017-03-15T02:24:07.131Z,932.25
2017-03-15T02:24:35.285Z,932.22
2017-03-15T02:25:03.450Z,932.23
2017-03-15T02:25:31.718Z,932.24
2017-03-15T02:25:59.929Z,932.27
2017-03-15T02:26:28.089Z,932.27
2017-03-15T02:26:56.269Z,932.24
2017-03-15T02:27:24.463Z,932.26
2017-03-15T02:27:52.653Z,932.24
2017-03-15T02:28:20.777Z,932.25
2017-03-15T02:28:48.917Z,932.25
2017-03-15T02:29:17.153Z,932.22
2017-03-15T02:29:45.345Z,932.22
2017-03-15T02:30:13.481Z,932.23
2017-03-15T02:30:41.754Z,932.22
2017-03-15T02:31:09.982Z,932.25
2017-03-15T02:31:38.265Z,932.22
2017-03-15T02:32:06.323Z,932.21
2017-03-15T02:32:34.344Z,932.23
2017-03-15T02:33:02.621Z,932.19
2017-03-15T02:33:30.806Z,932.21
2017-03-15T02:33:59.072Z,932.19
2017-03-15T02:34:27.303Z,932.18
2017-03-15T02:34:55.552Z,932.17
2017-03-15T02:35:23.682Z,932.19
2017-03-15T02:35:51.794Z,932.18
2017-03-15T02:36:19.937Z,932.19
2017-03-15T02:36:48.165Z,932.15
2017-03-15T02:37:16.415Z,932.14
2017-03-15T02:37:44.464Z,932.16
2017-03-15T02:38:12.757Z,932.18
2017-03-15T02:38:40.941Z,932.19
2017-03-15T02:39:09.135Z,932.16
2017-03-15T02:39:37.283Z,932.19
2017-03-15T02:40:05.465Z,932.18
2017-03-15T02:40:33.625Z,932.18
2017-03-15T02:41:01.890Z,932.18
2017-03-15T02:41:30.173Z,932.16
2017-03-15T02:41:58.427Z,932.16
2017-03-15T02:42:26.540Z,932.18
2017-03-15T02:42:54.672Z,932.19
2017-03-15T02:43:22.811Z,932.15
2017-03-15T02:43:51.318Z,932.18
2017-03-15T02:44:19.455Z,932.19
2017-03-15T02:44:47.697Z,932.18
2017-03-15T02:45:15.943Z,932.18
2017-03-15T02:45:44.085Z,932.2
2017-03-15T02:46:12.240Z,932.24
2017-03-15T02:46:40.446Z,932.17
2017-03-15T02:47:08.573Z,932.2
2017-03-15T02:47:36.742Z,932.2
2017-03-15T02:48:05.001Z,932.19
2017-03-15T02:48:33.244Z,932.2
2017-03-15T02:49:01.515Z,932.23
2017-03-15T02:49:29.566Z,932.27
2017-03-15T02:49:57.844Z,932.24
2017-03-15T02:50:25.921Z,932.28
2017-03-15T02:50:54.196Z,932.28
2017-03-15T02:51:22.409Z,932.28
2017-03-15T02:51:50.682Z,932.31
2017-03-15T02:52:18.916Z,932.27
2017-03-15T02:52:47.068Z,932.32
2017-03-15T02:53:15.137Z,932.32
2017-03-15T02:53:43.352Z,932.31
2017-03-15T02:54:11.571Z,932.33
2017-03-15T02:54:39.717Z,932.3
2017-03-15T02:55:07.978Z,932.33
2017-03-15T02:55:36.254Z,932.31
2017-03-15T02:56:04.507Z,932.3
2017-03-15T02:56:32.670Z,932.28
2017-03-15T02:57:00.810Z,932.31
2017-03-15T02:57:29.014Z,932.28
2017-03-15T02:57:57.250Z,932.3
2017-03-15T02:58:25.399Z,932.28
2017-03-15T02:58:53.659Z,932.26
2017-03-15T02:59:21.903Z,932.29
2017-03-15T02:59:50.048Z,932.27
2017-03-15T03:00:18.198Z,932.25
2017-03-15T03:00:46.412Z,932.23
2017-03-15T03:01:14.503Z,932.2
2017-03-15T03:01:42.665Z,932.24
2017-03-15T03:02:10.906Z,932.25
2017-03-15T03:02:39.141Z,932.18
2017-03-15T03:03:07.360Z,932.23
2017-03-15T03:03:35.603Z,932.2
2017-03-15T03:04:03.783Z,932.2
2017-03-15T03:04:32.060Z,932.2
2017-03-15T03:05:00.248Z,932.17
2017-03-15T03:05:28.459Z,932.19
2017-03-15T03:05:56.535Z,932.19
2017-03-15T03:06:24.778Z,932.18
2017-03-15T03:06:52.866Z,932.13
2017-03-15T03:07:21.088Z,932.12
2017-03-15T03:07:49.273Z,932.13
2017-03-15T03:08:17.542Z,932.13
2017-03-15T03:08:45.813Z,932.13
2017-03-15T03:09:14.163Z,932.09
2017-03-15T03:09:42.337Z,932.11
2017-03-15T03:10:10.426Z,932.13
2017-03-15T03:10:38.471Z,932.14
2017-03-15T03:11:06.692Z,932.14
2017-03-15T03:11:34.990Z,932.17
2017-03-15T03:12:03.278Z,932.09
2017-03-15T03:12:31.443Z,932.12
2017-03-15T03:12:59.726Z,932.14
2017-03-15T03:13:27.887Z,932.12
2017-03-15T03:13:56.129Z,932.12
2017-03-15T03:14:24.404Z,932.09
2017-03-15T03:14:52.472Z,932.12
2017-03-15T03:15:20.698Z,932.1
2017-03-15T03:15:48.991Z,932.05
2017-03-15T03:16:17.229Z,932.08
2017-03-15T03:16:45.501Z,932.12
2017-03-15T03:17:13.432Z,932.06
2017-03-15T03:17:41.674Z,932.03
2017-03-15T03:18:09.820Z,932.12
2017-03-15T03:18:37.952Z,932.12
2017-03-15T03:19:06.391Z,932.13
2017-03-15T03:19:34.634Z,932.1
2017-03-15T03:20:02.894Z,932.11
2017-03-15T03:20:31.116Z,932.12
2017-03-15T03:20:59.359Z,932.11
2017-03-15T03:21:27.571Z,932.07
2017-03-15T03:21:55.697Z,932.1
2017-03-15T03:22:23.772Z,932.11
2017-03-15T03:22:51.928Z,932.15
2017-03-15T03:23:20.167Z,932.1
2017-03-15T03:23:48.207Z,932.11
2017-03-15T03:24:16.368Z,932.08
2017-03-15T03:24:44.434Z,932.09
2017-03-15T03:25:12.576Z,932.09
2017-03-15T03:25:40.757Z,932.05
2017-03-15T03:26:08.806Z,932.1
2017-03-15T03:26:36.984Z,932.11
2017-03-15T03:27:05.128Z,932.1
2017-03-15T03:27:33.241Z,932.16
2017-03-15T03:28:01.408Z,932.13
2017-03-15T03:28:29.683Z,932.14
2017-03-15T03:28:57.936Z,932.18
2017-03-15T03:29:26.286Z,932.17
2017-03-15T03:29:54.525Z,932.15
2017-03-15T03:30:22.670Z,932.15
2017-03-15T03:30:50.942Z,932.13
2017-03-15T03:31:18.983Z,932.15
2017-03-15T03:31:47.213Z,932.15
2017-03-15T03:32:15.344Z,932.16
2017-03-15T03:32:43.584Z,932.19
2017-03-15T03:33:11.825Z,932.17
2017-03-15T03:33:40.060Z,932.19
2017-03-15T03:34:08.425Z,932.18
2017-03-15T03:34:36.710Z,932.16
2017-03-15T03:35:04.945Z,932.17
2017-03-15T03:35:33.140Z,932.17
2017-03-15T03:36:01.292Z,932.14
2017-03-15T03:36:29.343Z,932.16
2017-03-15T03:36:57.504Z,932.15
2017-03-15T03:37:25.616Z,932.12
2017-03-15T03:37:53.761Z,932.13
2017-03-15T03:38:21.910Z,932.13
2017-03-15T03:38:50.033Z,932.15
2017-03-15T03:39:18.431Z,932.1
2017-03-15T03:39:46.563Z,932.13
2017-03-15T03:40:14.633Z,932.14
2017-03-15T03:40:42.863Z,932.12
2017-03-15T03:41:11.073Z,932.14
2017-03-15T03:41:39.329Z,932.11
2017-03-15T03:42:07.559Z,932.09
2017-03-15T03:42:35.690Z,932.12
2017-03-15T03:43:03.831Z,932.1
2017-03-15T03:43:32.089Z,932.12
2017-03-15T03:44:00.031Z,932.12
2017-03-15T03:44:28.292Z,932.09
2017-03-15T03:44:56.561Z,932.14
2017-03-15T03:45:24.727Z,932.11
2017-03-15T03:45:52.824Z,932.09
2017-03-15T03:46:20.965Z,932.14
2017-03-15T03:46:49.160Z,932.1
2017-03-15T03:47:17.331Z,932.12
2017-03-15T03:47:45.523Z,932.1
2017-03-15T03:48:13.769Z,932.07
2017-03-15T03:48:41.997Z,932.1
2017-03-15T03:49:10.252Z,932.08
2017-03-15T03:49:38.518Z,932.09
2017-03-15T03:50:06.659Z,932.09
2017-03-15T03:50:34.785Z,932.14
2017-03-15T03:51:03.015Z,932.1
2017-03-15T03:51:31.246Z,932.13
2017-03-15T03:51:59.313Z,932.11
2017-03-15T03:52:27.255Z,932.12
2017-03-15T03:52:55.442Z,932.11
2017-03-15T03:53:23.690Z,932.08
2017-03-15T03:53:51.893Z,932.09
2017-03-15T03:54:20.428Z,932.08
2017-03-15T03:54:48.533Z,932.11
2017-03-15T03:55:16.927Z,932.05
2017-03-15T03:55:45.178Z,932.03
2017-03-15T03:56:13.399Z,932.05
2017-03-15T03:56:41.536Z,932.08
2017-03-15T03:57:09.790Z,932.04
2017-03-15T03:57:37.869Z,932.04
2017-03-15T03:58:06.109Z,932.02
2017-03-15T03:58:34.365Z,932
2017-03-15T03:59:02.629Z,932.04
2017-03-15T03:59:30.941Z,932.02
2017-03-15T03:59:58.976Z,932.03
2017-03-15T04:00:27.245Z,932.03
2017-03-15T04:00:55.478Z,932.02
2017-03-15T04:01:23.572Z,932
2017-03-15T04:01:51.821Z,931.99
2017-03-15T04:02:19.970Z,932.05
2017-03-15T04:02:48.121Z,932.01
2017-03-15T04:03:16.271Z,932.02
2017-03-15T04:03:44.359Z,931.98
2017-03-15T04:04:12.615Z,932.02
2017-03-15T04:04:40.861Z,932
2017-03-15T04:05:08.998Z,932.01
2017-03-15T04:05:37.152Z,931.98
2017-03-15T04:06:05.389Z,931.97
2017-03-15T04:06:33.532Z,932
2017-03-15T04:07:01.672Z,931.94
2017-03-15T04:07:29.938Z,931.94
2017-03-15T04:07:58.218Z,931.96
2017-03-15T04:08:26.401Z,931.93
2017-03-15T04:08:54.638Z,931.94
2017-03-15T04:09:22.826Z,931.9
2017-03-15T04:09:51.034Z,931.9
2017-03-15T04:10:18.973Z,931.91
2017-03-15T04:10:47.128Z,931.85
2017-03-15T04:11:15.190Z,931.84
2017-03-15T04:11:43.354Z,931.83
2017-03-15T04:12:11.578Z,931.84
2017-03-15T04:12:39.796Z,931.82
2017-03-15T04:13:08.044Z,931.79
2017-03-15T04:13:36.179Z,931.79
2017-03-15T04:14:04.351Z,931.79
2017-03-15T04:14:32.718Z,931.75
2017-03-15T04:15:00.963Z,931.76
2017-03-15T04:15:29.203Z,931.77
2017-03-15T04:15:57.359Z,931.74
2017-03-15T04:16:25.524Z,931.75
2017-03-15T04:16:53.797Z,931.74
2017-03-15T04:17:22.117Z,931.72
2017-03-15T04:17:50.455Z,931.71
2017-03-15T04:18:18.810Z,931.7
2017-03-15T04:18:47.075Z,931.68
2017-03-15T04:19:15.400Z,931.66
2017-03-15T04:19:43.708Z,931.71
2017-03-15T04:20:11.879Z,931.69
2017-03-15T04:20:40.030Z,931.66
2017-03-15T04:21:08.229Z,931.69
2017-03-15T04:21:36.501Z,931.7
2017-03-15T04:22:04.655Z,931.71
2017-03-15T04:22:32.760Z,931.67
2017-03-15T04:23:00.932Z,931.68
2017-03-15T04:23:29.105Z,931.68
2017-03-15T04:23:57.327Z,931.66
2017-03-15T04:24:25.529Z,931.65
2017-03-15T04:24:53.773Z,931.61
2017-03-15T04:25:21.918Z,931.6
2017-03-15T04:25:50.142Z,931.61
2017-03-15T04:26:18.278Z,931.6
2017-03-15T04:26:46.531Z,931.59
2017-03-15T04:27:14.712Z,931.6
2017-03-15T04:27:42.845Z,931.63
2017-03-15T04:28:11.053Z,931.63
2017-03-15T04:28:39.292Z,931.6
2017-03-15T04:29:07.472Z,931.59
2017-03-15T04:29:35.728Z,931.57
2017-03-15T04:30:03.875Z,931.58
2017-03-15T04:30:32.144Z,931.57
2017-03-15T04:31:00.323Z,931.56
2017-03-15T04:31:28.599Z,931.57
2017-03-15T04:31:56.859Z,931.54
2017-03-15T04:32:25.101Z,931.56
2017-03-15T04:32:53.331Z,931.54
2017-03-15T04:33:21.540Z,931.55
2017-03-15T04:33:49.529Z,931.52
2017-03-15T04:34:17.792Z,931.55
2017-03-15T04:34:46.039Z,931.56
2017-03-15T04:35:14.090Z,931.55
2017-03-15T04:35:42.367Z,931.58
2017-03-15T04:36:10.536Z,931.55
2017-03-15T04:36:38.757Z,931.54
2017-03-15T04:37:06.975Z,931.51
2017-03-15T04:37:35.109Z,931.53
2017-03-15T04:38:03.260Z,931.52
2017-03-15T04:38:31.295Z,931.49
2017-03-15T04:38:59.560Z,931.52
2017-03-15T04:39:27.678Z,931.53
2017-03-15T04:39:55.936Z,931.57
2017-03-15T04:40:24.093Z,931.54
2017-03-15T04:40:52.294Z,931.54
2017-03-15T04:41:20.524Z,931.52
2017-03-15T04:41:48.633Z,931.54
2017-03-15T04:42:16.862Z,931.53
2017-03-15T04:42:45.069Z,931.5
2017-03-15T04:43:13.294Z,931.46
2017-03-15T04:43:41.433Z,931.5
2017-03-15T04:44:09.635Z,931.48
2017-03-15T04:44:37.715Z,931.51
2017-03-15T04:45:05.786Z,931.51
2017-03-15T04:45:33.901Z,931.49
2017-03-15T04:46:01.906Z,931.53
2017-03-15T04:46:30.190Z,931.54
2017-03-15T04:46:58.336Z,931.53
2017-03-15T04:47:26.587Z,931.53
2017-03-15T04:47:54.778Z,931.49
2017-03-15T04:48:23.023Z,931.52
2017-03-15T04:48:51.165Z,931.53
2017-03-15T04:49:19.391Z,931.51
2017-03-15T04:49:47.520Z,931.5
2017-03-15T04:50:15.732Z,931.48
2017-03-15T04:50:44.014Z,931.5
2017-03-15T04:51:12.291Z,931.48
2017-03-15T04:51:40.640Z,931.56
2017-03-15T04:52:08.737Z,931.43
2017-03-15T04:52:36.763Z,931.48
2017-03-15T04:53:05.005Z,931.5
2017-03-15T04:53:33.172Z,931.45
2017-03-15T04:54:01.321Z,931.48
2017-03-15T04:54:29.572Z,931.47
2017-03-15T04:54:57.767Z,931.45
2017-03-15T04:55:25.890Z,931.47
2017-03-15T04:55:54.056Z,931.45
2017-03-15T04:56:22.234Z,931.49
2017-03-15T04:56:50.395Z,931.44
2017-03-15T04:57:18.623Z,931.43
2017-03-15T04:57:46.793Z,931.47
2017-03-15T04:58:15.002Z,931.45
2017-03-15T04:58:43.175Z,931.43
2017-03-15T04:59:11.388Z,931.44
2017-03-15T04:59:39.499Z,931.48
2017-03-15T05:00:07.759Z,931.4
2017-03-15T05:00:35.896Z,931.41
2017-03-15T05:01:04.049Z,931.44
2017-03-15T05:01:32.375Z,931.41
2017-03-15T05:02:00.697Z,931.41
2017-03-15T05:02:28.836Z,931.44
2017-03-15T05:02:56.965Z,931.43
2017-03-15T05:03:25.218Z,931.42
2017-03-15T05:03:53.305Z,931.4
2017-03-15T05:04:21.476Z,931.38
2017-03-15T05:04:49.703Z,931.4
2017-03-15T05:05:17.862Z,931.4
2017-03-15T05:05:45.914Z,931.39
2017-03-15T05:06:14.208Z,931.41
2017-03-15T05:06:42.639Z,931.42
2017-03-15T05:07:11.334Z,931.36
2017-03-15T05:07:39.552Z,931.37
2017-03-15T05:08:07.705Z,931.4
2017-03-15T05:08:35.812Z,931.38
2017-03-15T05:09:04.043Z,931.38
2017-03-15T05:09:32.193Z,931.38
2017-03-15T05:10:00.270Z,931.43
2017-03-15T05:10:28.359Z,931.39
2017-03-15T05:10:56.543Z,931.38
2017-03-15T05:11:24.700Z,931.38
2017-03-15T05:11:52.951Z,931.41
2017-03-15T05:12:21.194Z,931.38
2017-03-15T05:12:49.333Z,931.36
2017-03-15T05:13:17.497Z,931.37
2017-03-15T05:13:45.438Z,931.37
2017-03-15T05:14:13.562Z,931.33
2017-03-15T05:14:41.771Z,931.31
2017-03-15T05:15:09.919Z,931.3
2017-03-15T05:15:38.123Z,931.31
2017-03-15T05:16:06.423Z,931.33
2017-03-15T05:16:34.662Z,931.27
2017-03-15T05:17:02.991Z,931.28
2017-03-15T05:17:31.236Z,931.24
2017-03-15T05:17:59.311Z,931.28
2017-03-15T05:18:27.533Z,931.29
2017-03-15T05:18:55.689Z,931.26
2017-03-15T05:19:23.914Z,931.26
2017-03-15T05:19:52.188Z,931.28
2017-03-15T05:20:20.315Z,931.31
2017-03-15T05:20:48.454Z,931.25
2017-03-15T05:21:16.621Z,931.25
2017-03-15T05:21:44.880Z,931.26
2017-03-15T05:22:13.239Z,931.26
2017-03-15T05:22:41.352Z,931.22
2017-03-15T05:23:09.626Z,931.19
2017-03-15T05:23:37.962Z,931.18
2017-03-15T05:24:06.177Z,931.19
2017-03-15T05:24:34.421Z,931.18
2017-03-15T05:25:02.712Z,931.17
2017-03-15T05:25:31.023Z,931.14
2017-03-15T05:25:59.254Z,931.15
2017-03-15T05:26:27.226Z,931.13
2017-03-15T05:26:55.457Z,931.11
2017-03-15T05:27:23.619Z,931.1
2017-03-15T05:27:51.815Z,931.09
2017-03-15T05:28:19.965Z,931.09
2017-03-15T05:28:48.124Z,931.1
2017-03-15T05:29:16.275Z,931.07
2017-03-15T05:29:44.438Z,931.09
2017-03-15T05:30:12.594Z,931.07
2017-03-15T05:30:40.860Z,931.08
2017-03-15T05:31:09.013Z,931.08
2017-03-15T05:31:37.223Z,931.04
2017-03-15T05:32:05.554Z,931.07
2017-03-15T05:32:33.809Z,931.06
2017-03-15T05:33:01.798Z,931.08
2017-03-15T05:33:29.970Z,931.1
2017-03-15T05:33:58.094Z,931.05
2017-03-15T05:34:26.246Z,931.02
2017-03-15T05:34:54.404Z,931.02
2017-03-15T05:35:22.695Z,931.02
2017-03-15T05:35:50.877Z,931.05
2017-03-15T05:36:19.088Z,931.04
2017-03-15T05:36:47.426Z,931.01
2017-03-15T05:37:15.665Z,930.98
2017-03-15T05:37:43.897Z,931.01
2017-03-15T05:38:12.190Z,931.01
2017-03-15T05:38:40.413Z,930.99
2017-03-15T05:39:08.635Z,931
2017-03-15T05:39:36.880Z,930.99
2017-03-15T05:40:05.115Z,931.02
2017-03-15T05:40:33.323Z,931
2017-03-15T05:41:01.460Z,931
2017-03-15T05:41:29.548Z,931.01
2017-03-15T05:41:57.825Z,931.01
2017-03-15T05:42:25.914Z,930.99
2017-03-15T05:42:53.861Z,930.99
2017-03-15T05:43:22.104Z,930.99
2017-03-15T05:43:50.088Z,930.97
2017-03-15T05:44:18.331Z,931.03
2017-03-15T05:44:46.551Z,931
2017-03-15T05:45:14.752Z,931.01
2017-03-15T05:45:42.979Z,931.01
2017-03-15T05:46:11.259Z,931.01
2017-03-15T05:46:39.438Z,931
2017-03-15T05:47:07.925Z,930.98
2017-03-15T05:47:36.083Z,930.96
2017-03-15T05:48:04.192Z,930.95
2017-03-15T05:48:32.432Z,930.92
2017-03-15T05:49:00.577Z,930.92
2017-03-15T05:49:28.817Z,930.9
2017-03-15T05:49:56.793Z,930.86
2017-03-15T05:50:24.969Z,930.86
2017-03-15T05:50:53.103Z,930.86
2017-03-15T05:51:21.168Z,930.87
2017-03-15T05:51:49.368Z,930.84
2017-03-15T05:52:17.575Z,930.83
2017-03-15T05:52:45.861Z,930.83
2017-03-15T05:53:14.006Z,930.83